<?xml version="1.0" encoding="UTF-8" standalone="no" ?>
<gpx xmlns="http://www.topografix.com/GPX/1/1" xmlns:xsi="http://www.w3.org/2001/XMLSchema-instance" xsi:schemaLocation="http://www.topografix.com/GPX/1/1 http://www.topografix.com/GPX/1/1/gpx.xsd" version="1.1" creator="VisuGPX - https://www.visugpx.com">
  <metadata>
    <name>Randonnée Octobre 2018</name>
    <desc><![CDATA[Rando Octobre 2018 Salles Arbuissonnas]]></desc>
  </metadata>
  <trk>
    <name><![CDATA[Salles - Arbuissonnas]]></name>
    <trkseg>
      <trkpt lat="46.04057" lon="4.63466">
        <ele>313</ele>
        <time>2017-12-20T11:28:34+01:00</time>
      </trkpt>
      <trkpt lat="46.04099" lon="4.63474">
        <ele>310</ele>
        <time>2017-12-20T11:28:39+01:00</time>
      </trkpt>
      <trkpt lat="46.04064" lon="4.63658">
        <ele>301</ele>
        <time>2017-12-20T11:28:44+01:00</time>
      </trkpt>
      <trkpt lat="46.04071" lon="4.63817">
        <ele>297</ele>
        <time>2017-12-20T11:28:49+01:00</time>
      </trkpt>
      <trkpt lat="46.04091" lon="4.63998">
        <ele>291</ele>
        <time>2017-12-20T11:28:54+01:00</time>
      </trkpt>
      <trkpt lat="46.04193" lon="4.64047">
        <ele>285</ele>
        <time>2017-12-20T11:28:59+01:00</time>
      </trkpt>
      <trkpt lat="46.04288" lon="4.64062">
        <ele>282</ele>
        <time>2017-12-20T11:29:04+01:00</time>
      </trkpt>
      <trkpt lat="46.04389" lon="4.64048">
        <ele>281</ele>
        <time>2017-12-20T11:29:09+01:00</time>
      </trkpt>
      <trkpt lat="46.0443" lon="4.64199">
        <ele>275</ele>
        <time>2017-12-20T11:29:14+01:00</time>
      </trkpt>
      <trkpt lat="46.0449" lon="4.6425">
        <ele>271</ele>
        <time>2017-12-20T11:29:19+01:00</time>
      </trkpt>
      <trkpt lat="46.0462" lon="4.64303">
        <ele>262</ele>
        <time>2017-12-20T11:29:24+01:00</time>
      </trkpt>
      <trkpt lat="46.04665" lon="4.64286">
        <ele>258</ele>
        <time>2017-12-20T11:29:29+01:00</time>
      </trkpt>
      <trkpt lat="46.04704" lon="4.64325">
        <ele>256</ele>
        <time>2017-12-20T11:29:34+01:00</time>
      </trkpt>
      <trkpt lat="46.04769" lon="4.64333">
        <ele>254</ele>
        <time>2017-12-20T11:29:39+01:00</time>
      </trkpt>
      <trkpt lat="46.04924" lon="4.64397">
        <ele>258</ele>
        <time>2017-12-20T11:29:44+01:00</time>
      </trkpt>
      <trkpt lat="46.04992" lon="4.64363">
        <ele>262</ele>
        <time>2017-12-20T11:29:49+01:00</time>
      </trkpt>
      <trkpt lat="46.051" lon="4.64174">
        <ele>268</ele>
        <time>2017-12-20T11:29:54+01:00</time>
      </trkpt>
      <trkpt lat="46.05144" lon="4.64067">
        <ele>264</ele>
        <time>2017-12-20T11:29:59+01:00</time>
      </trkpt>
      <trkpt lat="46.05168" lon="4.63925">
        <ele>266</ele>
        <time>2017-12-20T11:30:04+01:00</time>
      </trkpt>
      <trkpt lat="46.05246" lon="4.63779">
        <ele>265</ele>
        <time>2017-12-20T11:30:09+01:00</time>
      </trkpt>
      <trkpt lat="46.05173" lon="4.63782">
        <ele>267</ele>
        <time>2017-12-20T11:30:14+01:00</time>
      </trkpt>
      <trkpt lat="46.05068" lon="4.63826">
        <ele>273</ele>
        <time>2017-12-20T11:30:19+01:00</time>
      </trkpt>
      <trkpt lat="46.05056" lon="4.63814">
        <ele>274</ele>
        <time>2017-12-20T11:30:24+01:00</time>
      </trkpt>
      <trkpt lat="46.04993" lon="4.63839">
        <ele>277</ele>
        <time>2017-12-20T11:30:29+01:00</time>
      </trkpt>
      <trkpt lat="46.04897" lon="4.63711">
        <ele>283</ele>
        <time>2017-12-20T11:30:34+01:00</time>
      </trkpt>
      <trkpt lat="46.04924" lon="4.63599">
        <ele>288</ele>
        <time>2017-12-20T11:30:39+01:00</time>
      </trkpt>
      <trkpt lat="46.04909" lon="4.63252">
        <ele>307</ele>
        <time>2017-12-20T11:30:44+01:00</time>
      </trkpt>
      <trkpt lat="46.04933" lon="4.63149">
        <ele>312</ele>
        <time>2017-12-20T11:30:49+01:00</time>
      </trkpt>
      <trkpt lat="46.04955" lon="4.63115">
        <ele>312</ele>
        <time>2017-12-20T11:30:54+01:00</time>
      </trkpt>
      <trkpt lat="46.04963" lon="4.63063">
        <ele>313</ele>
        <time>2017-12-20T11:30:59+01:00</time>
      </trkpt>
      <trkpt lat="46.0501" lon="4.63076">
        <ele>307</ele>
        <time>2017-12-20T11:31:04+01:00</time>
      </trkpt>
      <trkpt lat="46.05016" lon="4.63106">
        <ele>306</ele>
        <time>2017-12-20T11:31:09+01:00</time>
      </trkpt>
      <trkpt lat="46.05191" lon="4.63193">
        <ele>285</ele>
        <time>2017-12-20T11:31:14+01:00</time>
      </trkpt>
      <trkpt lat="46.05182" lon="4.63249">
        <ele>285</ele>
        <time>2017-12-20T11:31:19+01:00</time>
      </trkpt>
      <trkpt lat="46.05188" lon="4.63314">
        <ele>283</ele>
        <time>2017-12-20T11:31:24+01:00</time>
      </trkpt>
      <trkpt lat="46.05231" lon="4.63342">
        <ele>279</ele>
        <time>2017-12-20T11:31:29+01:00</time>
      </trkpt>
      <trkpt lat="46.05195" lon="4.63445">
        <ele>276</ele>
        <time>2017-12-20T11:31:34+01:00</time>
      </trkpt>
      <trkpt lat="46.05173" lon="4.63581">
        <ele>268</ele>
        <time>2017-12-20T11:31:39+01:00</time>
      </trkpt>
      <trkpt lat="46.05236" lon="4.6356">
        <ele>266</ele>
        <time>2017-12-20T11:31:44+01:00</time>
      </trkpt>
      <trkpt lat="46.05293" lon="4.63522">
        <ele>265</ele>
        <time>2017-12-20T11:31:49+01:00</time>
      </trkpt>
      <trkpt lat="46.05371" lon="4.63428">
        <ele>265</ele>
        <time>2017-12-20T11:31:54+01:00</time>
      </trkpt>
      <trkpt lat="46.05427" lon="4.63307">
        <ele>263</ele>
        <time>2017-12-20T11:31:59+01:00</time>
      </trkpt>
      <trkpt lat="46.05459" lon="4.63251">
        <ele>259</ele>
        <time>2017-12-20T11:32:04+01:00</time>
      </trkpt>
      <trkpt lat="46.05493" lon="4.63222">
        <ele>259</ele>
        <time>2017-12-20T11:32:09+01:00</time>
      </trkpt>
      <trkpt lat="46.05573" lon="4.63182">
        <ele>257</ele>
        <time>2017-12-20T11:32:14+01:00</time>
      </trkpt>
      <trkpt lat="46.056" lon="4.63149">
        <ele>256</ele>
        <time>2017-12-20T11:32:19+01:00</time>
      </trkpt>
      <trkpt lat="46.05618" lon="4.63084">
        <ele>256</ele>
        <time>2017-12-20T11:32:24+01:00</time>
      </trkpt>
      <trkpt lat="46.05634" lon="4.62961">
        <ele>253</ele>
        <time>2017-12-20T11:32:29+01:00</time>
      </trkpt>
      <trkpt lat="46.05513" lon="4.62929">
        <ele>263</ele>
        <time>2017-12-20T11:32:34+01:00</time>
      </trkpt>
      <trkpt lat="46.05466" lon="4.6299">
        <ele>263</ele>
        <time>2017-12-20T11:32:39+01:00</time>
      </trkpt>
      <trkpt lat="46.05371" lon="4.62925">
        <ele>271</ele>
        <time>2017-12-20T11:32:44+01:00</time>
      </trkpt>
      <trkpt lat="46.05359" lon="4.62861">
        <ele>274</ele>
        <time>2017-12-20T11:32:49+01:00</time>
      </trkpt>
      <trkpt lat="46.05323" lon="4.62818">
        <ele>278</ele>
        <time>2017-12-20T11:32:54+01:00</time>
      </trkpt>
      <trkpt lat="46.05362" lon="4.62694">
        <ele>283</ele>
        <time>2017-12-20T11:32:59+01:00</time>
      </trkpt>
      <trkpt lat="46.05338" lon="4.62672">
        <ele>285</ele>
        <time>2017-12-20T11:33:04+01:00</time>
      </trkpt>
      <trkpt lat="46.05356" lon="4.62634">
        <ele>285</ele>
        <time>2017-12-20T11:33:09+01:00</time>
      </trkpt>
      <trkpt lat="46.05183" lon="4.62574">
        <ele>296</ele>
        <time>2017-12-20T11:33:14+01:00</time>
      </trkpt>
      <trkpt lat="46.05029" lon="4.62681">
        <ele>309</ele>
        <time>2017-12-20T11:33:19+01:00</time>
      </trkpt>
      <trkpt lat="46.05007" lon="4.62661">
        <ele>313</ele>
        <time>2017-12-20T11:33:24+01:00</time>
      </trkpt>
      <trkpt lat="46.04987" lon="4.6266">
        <ele>316</ele>
        <time>2017-12-20T11:33:29+01:00</time>
      </trkpt>
      <trkpt lat="46.04995" lon="4.62423">
        <ele>326</ele>
        <time>2017-12-20T11:33:34+01:00</time>
      </trkpt>
      <trkpt lat="46.0493" lon="4.62312">
        <ele>337</ele>
        <time>2017-12-20T11:33:39+01:00</time>
      </trkpt>
      <trkpt lat="46.04948" lon="4.62415">
        <ele>336</ele>
        <time>2017-12-20T11:33:44+01:00</time>
      </trkpt>
      <trkpt lat="46.04936" lon="4.62501">
        <ele>339</ele>
        <time>2017-12-20T11:33:49+01:00</time>
      </trkpt>
      <trkpt lat="46.04924" lon="4.62428">
        <ele>342</ele>
        <time>2017-12-20T11:33:54+01:00</time>
      </trkpt>
      <trkpt lat="46.04873" lon="4.62359">
        <ele>351</ele>
        <time>2017-12-20T11:33:59+01:00</time>
      </trkpt>
      <trkpt lat="46.04867" lon="4.62595">
        <ele>350</ele>
        <time>2017-12-20T11:34:04+01:00</time>
      </trkpt>
      <trkpt lat="46.04811" lon="4.62659">
        <ele>352</ele>
        <time>2017-12-20T11:34:09+01:00</time>
      </trkpt>
      <trkpt lat="46.0482" lon="4.62604">
        <ele>357</ele>
        <time>2017-12-20T11:34:14+01:00</time>
      </trkpt>
      <trkpt lat="46.04715" lon="4.62539">
        <ele>361</ele>
        <time>2017-12-20T11:34:19+01:00</time>
      </trkpt>
      <trkpt lat="46.04599" lon="4.62402">
        <ele>373</ele>
        <time>2017-12-20T11:34:24+01:00</time>
      </trkpt>
      <trkpt lat="46.04644" lon="4.62393">
        <ele>377</ele>
        <time>2017-12-20T11:34:29+01:00</time>
      </trkpt>
      <trkpt lat="46.04602" lon="4.6217">
        <ele>399</ele>
        <time>2017-12-20T11:34:34+01:00</time>
      </trkpt>
      <trkpt lat="46.04647" lon="4.62144">
        <ele>395</ele>
        <time>2017-12-20T11:34:39+01:00</time>
      </trkpt>
      <trkpt lat="46.04602" lon="4.61986">
        <ele>394</ele>
        <time>2017-12-20T11:34:44+01:00</time>
      </trkpt>
      <trkpt lat="46.04573" lon="4.61973">
        <ele>395</ele>
        <time>2017-12-20T11:34:49+01:00</time>
      </trkpt>
      <trkpt lat="46.04567" lon="4.61737">
        <ele>373</ele>
        <time>2017-12-20T11:34:54+01:00</time>
      </trkpt>
      <trkpt lat="46.04522" lon="4.61784">
        <ele>375</ele>
        <time>2017-12-20T11:34:59+01:00</time>
      </trkpt>
      <trkpt lat="46.04489" lon="4.61792">
        <ele>373</ele>
        <time>2017-12-20T11:35:04+01:00</time>
      </trkpt>
      <trkpt lat="46.04462" lon="4.61831">
        <ele>371</ele>
        <time>2017-12-20T11:35:09+01:00</time>
      </trkpt>
      <trkpt lat="46.0443" lon="4.61947">
        <ele>371</ele>
        <time>2017-12-20T11:35:14+01:00</time>
      </trkpt>
      <trkpt lat="46.04315" lon="4.62069">
        <ele>354</ele>
        <time>2017-12-20T11:35:19+01:00</time>
      </trkpt>
      <trkpt lat="46.04346" lon="4.62226">
        <ele>361</ele>
        <time>2017-12-20T11:35:24+01:00</time>
      </trkpt>
      <trkpt lat="46.04325" lon="4.62226">
        <ele>358</ele>
        <time>2017-12-20T11:35:29+01:00</time>
      </trkpt>
      <trkpt lat="46.04325" lon="4.62303">
        <ele>355</ele>
        <time>2017-12-20T11:35:34+01:00</time>
      </trkpt>
      <trkpt lat="46.04248" lon="4.62363">
        <ele>341</ele>
        <time>2017-12-20T11:35:39+01:00</time>
      </trkpt>
      <trkpt lat="46.04217" lon="4.6226">
        <ele>340</ele>
        <time>2017-12-20T11:35:44+01:00</time>
      </trkpt>
      <trkpt lat="46.0423" lon="4.62127">
        <ele>341</ele>
        <time>2017-12-20T11:35:49+01:00</time>
      </trkpt>
      <trkpt lat="46.0423" lon="4.62003">
        <ele>338</ele>
        <time>2017-12-20T11:35:54+01:00</time>
      </trkpt>
      <trkpt lat="46.04228" lon="4.61909">
        <ele>339</ele>
        <time>2017-12-20T11:35:59+01:00</time>
      </trkpt>
      <trkpt lat="46.04229" lon="4.61827">
        <ele>340</ele>
        <time>2017-12-20T11:36:04+01:00</time>
      </trkpt>
      <trkpt lat="46.04208" lon="4.6182">
        <ele>341</ele>
        <time>2017-12-20T11:36:09+01:00</time>
      </trkpt>
      <trkpt lat="46.04185" lon="4.61844">
        <ele>340</ele>
        <time>2017-12-20T11:36:14+01:00</time>
      </trkpt>
      <trkpt lat="46.04132" lon="4.61823">
        <ele>350</ele>
        <time>2017-12-20T11:36:19+01:00</time>
      </trkpt>
      <trkpt lat="46.04164" lon="4.61814">
        <ele>344</ele>
        <time>2017-12-20T11:36:24+01:00</time>
      </trkpt>
      <trkpt lat="46.04214" lon="4.61725">
        <ele>348</ele>
        <time>2017-12-20T11:36:29+01:00</time>
      </trkpt>
      <trkpt lat="46.04248" lon="4.61621">
        <ele>352</ele>
        <time>2017-12-20T11:36:34+01:00</time>
      </trkpt>
      <trkpt lat="46.04135" lon="4.6175">
        <ele>358</ele>
        <time>2017-12-20T11:36:39+01:00</time>
      </trkpt>
      <trkpt lat="46.04164" lon="4.61642">
        <ele>373</ele>
        <time>2017-12-20T11:36:44+01:00</time>
      </trkpt>
      <trkpt lat="46.04141" lon="4.61535">
        <ele>392</ele>
        <time>2017-12-20T11:36:49+01:00</time>
      </trkpt>
      <trkpt lat="46.0412" lon="4.61548">
        <ele>398</ele>
        <time>2017-12-20T11:36:54+01:00</time>
      </trkpt>
      <trkpt lat="46.04096" lon="4.61428">
        <ele>405</ele>
        <time>2017-12-20T11:36:59+01:00</time>
      </trkpt>
      <trkpt lat="46.04048" lon="4.61389">
        <ele>413</ele>
        <time>2017-12-20T11:37:04+01:00</time>
      </trkpt>
      <trkpt lat="46.03998" lon="4.61372">
        <ele>422</ele>
        <time>2017-12-20T11:37:09+01:00</time>
      </trkpt>
      <trkpt lat="46.03974" lon="4.61419">
        <ele>428</ele>
        <time>2017-12-20T11:37:14+01:00</time>
      </trkpt>
      <trkpt lat="46.03953" lon="4.61372">
        <ele>428</ele>
        <time>2017-12-20T11:37:19+01:00</time>
      </trkpt>
      <trkpt lat="46.03887" lon="4.61378">
        <ele>430</ele>
        <time>2017-12-20T11:37:24+01:00</time>
      </trkpt>
      <trkpt lat="46.03938" lon="4.61599">
        <ele>424</ele>
        <time>2017-12-20T11:37:29+01:00</time>
      </trkpt>
      <trkpt lat="46.03875" lon="4.61728">
        <ele>390</ele>
        <time>2017-12-20T11:37:34+01:00</time>
      </trkpt>
      <trkpt lat="46.03977" lon="4.61784">
        <ele>383</ele>
        <time>2017-12-20T11:37:39+01:00</time>
      </trkpt>
      <trkpt lat="46.03986" lon="4.61857">
        <ele>370</ele>
        <time>2017-12-20T11:37:44+01:00</time>
      </trkpt>
      <trkpt lat="46.04004" lon="4.6187">
        <ele>367</ele>
        <time>2017-12-20T11:37:49+01:00</time>
      </trkpt>
      <trkpt lat="46.03986" lon="4.62071">
        <ele>343</ele>
        <time>2017-12-20T11:37:54+01:00</time>
      </trkpt>
      <trkpt lat="46.03962" lon="4.62059">
        <ele>342</ele>
        <time>2017-12-20T11:37:59+01:00</time>
      </trkpt>
      <trkpt lat="46.03941" lon="4.62037">
        <ele>343</ele>
        <time>2017-12-20T11:38:04+01:00</time>
      </trkpt>
      <trkpt lat="46.03878" lon="4.6202">
        <ele>338</ele>
        <time>2017-12-20T11:38:09+01:00</time>
      </trkpt>
      <trkpt lat="46.0392" lon="4.62063">
        <ele>337</ele>
        <time>2017-12-20T11:38:14+01:00</time>
      </trkpt>
      <trkpt lat="46.03896" lon="4.62076">
        <ele>332</ele>
        <time>2017-12-20T11:38:19+01:00</time>
      </trkpt>
      <trkpt lat="46.03846" lon="4.62033">
        <ele>331</ele>
        <time>2017-12-20T11:38:24+01:00</time>
      </trkpt>
      <trkpt lat="46.03783" lon="4.62011">
        <ele>333</ele>
        <time>2017-12-20T11:38:29+01:00</time>
      </trkpt>
      <trkpt lat="46.03762" lon="4.62024">
        <ele>333</ele>
        <time>2017-12-20T11:38:34+01:00</time>
      </trkpt>
      <trkpt lat="46.03795" lon="4.6214">
        <ele>328</ele>
        <time>2017-12-20T11:38:39+01:00</time>
      </trkpt>
      <trkpt lat="46.03867" lon="4.62217">
        <ele>325</ele>
        <time>2017-12-20T11:38:44+01:00</time>
      </trkpt>
      <trkpt lat="46.0392" lon="4.62363">
        <ele>318</ele>
        <time>2017-12-20T11:38:49+01:00</time>
      </trkpt>
      <trkpt lat="46.0392" lon="4.62419">
        <ele>320</ele>
        <time>2017-12-20T11:38:54+01:00</time>
      </trkpt>
      <trkpt lat="46.03956" lon="4.62449">
        <ele>318</ele>
        <time>2017-12-20T11:38:59+01:00</time>
      </trkpt>
      <trkpt lat="46.03966" lon="4.62537">
        <ele>324</ele>
        <time>2017-12-20T11:39:04+01:00</time>
      </trkpt>
      <trkpt lat="46.03953" lon="4.62612">
        <ele>329</ele>
        <time>2017-12-20T11:39:09+01:00</time>
      </trkpt>
      <trkpt lat="46.0392" lon="4.62647">
        <ele>335</ele>
        <time>2017-12-20T11:39:14+01:00</time>
      </trkpt>
      <trkpt lat="46.03901" lon="4.62682">
        <ele>337</ele>
        <time>2017-12-20T11:39:19+01:00</time>
      </trkpt>
      <trkpt lat="46.0388" lon="4.62771">
        <ele>333</ele>
        <time>2017-12-20T11:39:24+01:00</time>
      </trkpt>
      <trkpt lat="46.03941" lon="4.62788">
        <ele>323</ele>
        <time>2017-12-20T11:39:29+01:00</time>
      </trkpt>
      <trkpt lat="46.03969" lon="4.62821">
        <ele>322</ele>
        <time>2017-12-20T11:39:34+01:00</time>
      </trkpt>
      <trkpt lat="46.04007" lon="4.62835">
        <ele>319</ele>
        <time>2017-12-20T11:39:39+01:00</time>
      </trkpt>
      <trkpt lat="46.04056" lon="4.6293">
        <ele>318</ele>
        <time>2017-12-20T11:39:44+01:00</time>
      </trkpt>
      <trkpt lat="46.04062" lon="4.63061">
        <ele>317</ele>
        <time>2017-12-20T11:39:49+01:00</time>
      </trkpt>
      <trkpt lat="46.04053" lon="4.63266">
        <ele>316</ele>
        <time>2017-12-20T11:39:54+01:00</time>
      </trkpt>
      <trkpt lat="46.04089" lon="4.63315">
        <ele>312</ele>
        <time>2017-12-20T11:39:59+01:00</time>
      </trkpt>
      <trkpt lat="46.041" lon="4.63402">
        <ele>310</ele>
        <time>2017-12-20T11:40:04+01:00</time>
      </trkpt>
      <trkpt lat="46.04097" lon="4.63472">
        <ele>310</ele>
        <time>2017-12-20T11:40:09+01:00</time>
      </trkpt>
      <trkpt lat="46.0406" lon="4.63466">
        <ele>312</ele>
        <time>2017-12-20T11:40:14+01:00</time>
      </trkpt>
    </trkseg>
  </trk>
</gpx>